Time;durP1;ratioP1;P1;durP2;ratioP2;P2;SDS_P1;SDS_P2;PMS_P1;PMS_P2;Temp;Humidity;BMP_temperature;BMP_pressure;BME280_temperature;BME280_humidity;BME280_pressure;Samples;Min_cycle;Max_cycle;Signal;HPM_P1;HPM_P2
2022/06/29 00:01:03;;;;;;;4.18;2.78;;;;;;;;;;12647764;28;20040;-78
2022/06/29 00:07:05;;;;;;;4.80;2.00;;;;;;;;;;12647806;28;20044;-78
2022/06/29 00:13:07;;;;;;;6.80;1.98;;;;;;;;;;12648831;28;20036;-78
2022/06/29 00:19:09;;;;;;;3.85;1.40;;;;;;;;;;12648725;28;20032;-78
2022/06/29 00:25:11;;;;;;;3.85;1.45;;;;;;;;;;12646054;28;20089;-78
2022/06/29 00:31:13;;;;;;;5.00;1.70;;;;;;;;;;12645684;28;20028;-85
2022/06/29 00:37:15;;;;;;;5.15;1.60;;;;;;;;;;12645747;28;20514;-85
2022/06/29 00:43:16;;;;;;;4.32;2.25;;;;;;;;;;12610944;28;20395;-78
2022/06/29 00:49:19;;;;;;;4.32;1.40;;;;;;;;;;12645277;28;20043;-84
2022/06/29 00:55:22;;;;;;;5.18;1.83;;;;;;;;;;12644733;28;20032;-78
2022/06/29 01:01:26;;;;;;;3.55;1.10;;;;;;;;;;12644951;28;20036;-78
2022/06/29 01:07:29;;;;;;;4.85;1.67;;;;;;;;;;12645220;28;20387;-85
2022/06/29 01:13:31;;;;;;;4.47;1.67;;;;;;;;;;12644791;28;20032;-85
2022/06/29 01:19:32;;;;;;;3.15;1.20;;;;;;;;;;12610958;28;20032;-78
2022/06/29 01:25:34;;;;;;;3.55;1.30;;;;;;;;;;12629155;28;20044;-78
2022/06/29 01:31:36;;;;;;;4.10;1.27;;;;;;;;;;12654629;28;20514;-78
2022/06/29 01:37:38;;;;;;;3.08;1.00;;;;;;;;;;12635769;28;20388;-84
2022/06/29 01:43:40;;;;;;;3.92;1.17;;;;;;;;;;12654388;28;20028;-85
2022/06/29 01:49:42;;;;;;;2.47;1.15;;;;;;;;;;12653628;28;20499;-82
2022/06/29 01:55:44;;;;;;;3.55;0.90;;;;;;;;;;12653944;28;20487;-78
2022/06/29 02:01:48;;;;;;;3.08;1.20;;;;;;;;;;12652676;28;20028;-84
2022/06/29 02:07:50;;;;;;;4.90;1.27;;;;;;;;;;12653435;28;20055;-84
2022/06/29 02:13:52;;;;;;;3.33;0.90;;;;;;;;;;12653165;28;20036;-78
2022/06/29 02:19:54;;;;;;;2.03;0.60;;;;;;;;;;12617568;28;20040;-78
2022/06/29 02:25:55;;;;;;;2.15;0.88;;;;;;;;;;12652074;28;20036;-83
2022/06/29 02:38:18;;;;;;;3.63;1.20;;;;;;;;;;12651885;28;20496;-78
2022/06/29 02:44:19;;;;;;;4.88;1.17;;;;;;;;;;12633589;28;20055;-85
2022/06/29 02:50:21;;;;;;;4.70;1.30;;;;;;;;;;12632593;28;20059;-84
2022/06/29 02:56:23;;;;;;;3.08;1.42;;;;;;;;;;12632300;28;20043;-85
2022/06/29 03:02:24;;;;;;;;;;;;;;;;;;12615654;28;20086;-84
2022/06/29 03:08:26;;;;;;;3.47;1.70;;;;;;;;;;12650897;28;19915;-85
2022/06/29 03:14:28;;;;;;;3.50;1.55;;;;;;;;;;12649252;28;20282;-85
2022/06/29 03:20:30;;;;;;;4.90;1.88;;;;;;;;;;12630657;28;20039;-78
2022/06/29 03:26:32;;;;;;;3.38;1.45;;;;;;;;;;12631127;28;20044;-85
2022/06/29 03:32:34;;;;;;;5.15;1.92;;;;;;;;;;12648900;28;20040;-78
2022/06/29 03:38:35;;;;;;;3.72;1.45;;;;;;;;;;12631018;28;20063;-84
2022/06/29 03:44:38;;;;;;;2.97;1.90;;;;;;;;;;12613421;28;20028;-84
2022/06/29 03:50:39;;;;;;;2.58;1.90;;;;;;;;;;12647400;28;20055;-84
2022/06/29 03:56:41;;;;;;;5.78;1.98;;;;;;;;;;12647611;28;20039;-85
2022/06/29 04:02:43;;;;;;;4.72;2.22;;;;;;;;;;12629010;28;20043;-85
2022/06/29 04:08:45;;;;;;;3.58;2.10;;;;;;;;;;12613594;28;20032;-78
2022/06/29 04:14:47;;;;;;;3.40;2.38;;;;;;;;;;12628610;28;20474;-84
2022/06/29 04:21:06;;;;;;;8.70;3.25;;;;;;;;;;12628376;28;20028;-85
2022/06/29 04:27:08;;;;;;;7.78;3.40;;;;;;;;;;12628038;28;20043;-79
2022/06/29 04:33:10;;;;;;;7.38;2.70;;;;;;;;;;12627632;28;20490;-79
2022/06/29 04:39:12;;;;;;;7.97;3.20;;;;;;;;;;12645772;28;20479;-85
2022/06/29 04:51:36;;;;;;;5.30;2.60;;;;;;;;;;12603295;28;20051;-79
2022/06/29 04:57:37;;;;;;;6.47;3.13;;;;;;;;;;12644543;28;20032;-85
2022/06/29 05:03:39;;;;;;;;;;;;;;;;;;12625797;28;20043;-84
2022/06/29 05:09:40;;;;;;;5.43;2.37;;;;;;;;;;12645395;28;20295;-85
2022/06/29 05:15:42;;;;;;;;;;;;;;;;;;12644502;28;20522;-78
2022/06/29 05:21:44;;;;;;;7.90;3.17;;;;;;;;;;12644358;28;19912;-84
2022/06/29 05:27:46;;;;;;;12.77;5.00;;;;;;;;;;12644334;28;20039;-82
2022/06/29 05:33:48;;;;;;;8.68;3.22;;;;;;;;;;12606879;28;20464;-78
2022/06/29 05:39:50;;;;;;;;;;;;;;;;;;12626045;28;20413;-82
2022/06/29 05:45:51;;;;;;;8.83;3.33;;;;;;;;;;12608732;28;19920;-82
2022/06/29 05:51:53;;;;;;;;;;;;;;;;;;12643396;28;20289;-81
2022/06/29 05:57:54;;;;;;;5.10;2.93;;;;;;;;;;12643373;28;19908;-78
2022/06/29 06:03:56;;;;;;;;;;;;;;;;;;12641742;28;20043;-77
2022/06/29 06:09:58;;;;;;;3.83;2.40;;;;;;;;;;12622956;28;20368;-80
2022/06/29 06:15:59;;;;;;;4.43;2.92;;;;;;;;;;12648924;28;20396;-78
2022/06/29 06:22:01;;;;;;;3.85;2.65;;;;;;;;;;12631523;28;20035;-78
2022/06/29 06:28:05;;;;;;;3.55;2.40;;;;;;;;;;12648733;28;20043;-78
2022/06/29 06:34:07;;;;;;;3.30;2.25;;;;;;;;;;12647954;28;20032;-78
2022/06/29 06:46:30;;;;;;;3.80;2.10;;;;;;;;;;12629917;28;20043;-76
2022/06/29 06:52:32;;;;;;;3.67;1.90;;;;;;;;;;12647895;28;20043;-78
2022/06/29 06:58:37;;;;;;;2.80;1.70;;;;;;;;;;12630018;28;20036;-77
2022/06/29 07:04:41;;;;;;;5.25;2.00;;;;;;;;;;12629108;28;20031;-76
2022/06/29 07:10:42;;;;;;;3.67;1.83;;;;;;;;;;12648270;28;20048;-78
2022/06/29 07:16:44;;;;;;;1.30;1.20;;;;;;;;;;12612688;28;20043;-83
2022/06/29 07:22:46;;;;;;;2.65;1.80;;;;;;;;;;12628279;28;20043;-83
2022/06/29 07:28:48;;;;;;;2.08;1.80;;;;;;;;;;12644824;28;20044;-81
2022/06/29 07:34:50;;;;;;;2.85;1.38;;;;;;;;;;12655753;28;20035;-81
2022/06/29 07:40:52;;;;;;;3.70;1.58;;;;;;;;;;12653615;28;20496;-82
2022/06/29 07:46:54;;;;;;;3.17;1.52;;;;;;;;;;12627118;28;20048;-81
2022/06/29 07:52:55;;;;;;;4.45;1.50;;;;;;;;;;12627321;28;20508;-81
2022/06/29 07:59:00;;;;;;;11.57;2.47;;;;;;;;;;12644553;28;20032;-82
2022/06/29 08:05:03;;;;;;;15.07;2.33;;;;;;;;;;12627788;28;20048;-84
2022/06/29 08:11:06;;;;;;;2.47;1.45;;;;;;;;;;12627721;28;20052;-83
2022/06/29 08:17:08;;;;;;;2.95;1.50;;;;;;;;;;12628374;28;20043;-84
2022/06/29 08:23:10;;;;;;;4.55;1.83;;;;;;;;;;12631526;28;20038;-83
2022/06/29 08:29:12;;;;;;;15.38;3.33;;;;;;;;;;12609984;28;20032;-84
2022/06/29 08:35:14;;;;;;;3.30;2.10;;;;;;;;;;12625269;28;20032;-83
2022/06/29 08:41:16;;;;;;;3.03;1.50;;;;;;;;;;12644002;28;20063;-81
2022/06/29 08:47:18;;;;;;;5.15;1.77;;;;;;;;;;12643428;28;20051;-82
2022/06/29 08:53:23;;;;;;;2.83;1.83;;;;;;;;;;12626779;28;20036;-81
2022/06/29 08:59:25;;;;;;;6.68;2.22;;;;;;;;;;12624910;28;20404;-81
2022/06/29 09:05:27;;;;;;;10.02;2.42;;;;;;;;;;12607860;28;20032;-82
2022/06/29 09:11:29;;;;;;;2.97;1.70;;;;;;;;;;12643976;28;20397;-83
2022/06/29 09:17:32;;;;;;;6.70;1.70;;;;;;;;;;12641654;28;20040;-80
2022/06/29 09:23:35;;;;;;;3.70;2.17;;;;;;;;;;12623842;28;20427;-81
2022/06/29 09:29:41;;;;;;;3.08;1.92;;;;;;;;;;12640968;28;20040;-79
2022/06/29 09:35:43;;;;;;;3.08;1.85;;;;;;;;;;12623854;28;20044;-79
2022/06/29 09:41:45;;;;;;;3.95;2.50;;;;;;;;;;12641202;28;20059;-80
2022/06/29 09:47:48;;;;;;;6.18;3.35;;;;;;;;;;12636435;28;20036;-80
2022/06/29 09:53:53;;;;;;;4.93;3.33;;;;;;;;;;12632925;28;20047;-81
2022/06/29 10:06:22;;;;;;;5.40;3.45;;;;;;;;;;12650199;28;20043;-81
2022/06/29 10:18:56;;;;;;;5.30;3.30;;;;;;;;;;12648128;28;20043;-83
2022/06/29 10:25:10;;;;;;;5.25;3.17;;;;;;;;;;12648725;28;20032;-82
2022/06/29 10:31:15;;;;;;;3.72;2.70;;;;;;;;;;12631494;28;20599;-79
2022/06/29 10:37:16;;;;;;;4.18;3.45;;;;;;;;;;12634504;28;20040;-84
2022/06/29 10:43:20;;;;;;;4.97;3.67;;;;;;;;;;12626772;28;20055;-84
2022/06/29 10:49:23;;;;;;;3.67;3.25;;;;;;;;;;12636682;28;20040;-81
2022/06/29 10:55:28;;;;;;;7.38;3.75;;;;;;;;;;12637563;28;20399;-81
2022/06/29 11:01:29;;;;;;;6.60;3.88;;;;;;;;;;12632052;28;20039;-81
2022/06/29 11:13:51;;;;;;;7.47;4.10;;;;;;;;;;12652206;28;20036;-81
2022/06/29 11:19:53;;;;;;;4.22;3.22;;;;;;;;;;12631003;28;20649;-84
2022/06/29 11:25:55;;;;;;;5.20;3.53;;;;;;;;;;12632867;28;20367;-84
2022/06/29 11:32:01;;;;;;;5.72;3.60;;;;;;;;;;12626379;28;20040;-84
2022/06/29 11:38:05;;;;;;;7.10;5.95;;;;;;;;;;12617936;28;20052;-84
2022/06/29 11:44:06;;;;;;;8.65;7.32;;;;;;;;;;12632389;28;20480;-85
2022/06/29 11:50:12;;;;;;;4.50;3.80;;;;;;;;;;12631160;28;20051;-85
2022/06/29 11:56:19;;;;;;;8.18;4.68;;;;;;;;;;12648596;28;20376;-85
2022/06/29 12:02:20;;;;;;;6.90;3.67;;;;;;;;;;12612788;28;20036;-81
2022/06/29 12:08:22;;;;;;;8.88;3.83;;;;;;;;;;12628908;28;20039;-86
2022/06/29 12:14:24;;;;;;;8.63;4.22;;;;;;;;;;12647326;28;20134;-86
2022/06/29 12:20:25;;;;;;;6.55;2.70;;;;;;;;;;12629321;28;20031;-85
2022/06/29 12:26:27;;;;;;;;;;;;;;;;;;12628640;28;20044;-85
2022/06/29 12:32:29;;;;;;;7.38;4.72;;;;;;;;;;12615168;28;19908;-83
2022/06/29 12:38:31;;;;;;;;;;;;;;;;;;12629577;28;20074;-83
2022/06/29 12:44:33;;;;;;;2.53;2.33;;;;;;;;;;12646511;28;20260;-83
2022/06/29 12:50:35;;;;;;;;;;;;;;;;;;12628913;28;20091;-83
2022/06/29 12:56:37;;;;;;;1.87;1.47;;;;;;;;;;12610830;28;19919;-83
2022/06/29 13:02:40;;;;;;;1.95;1.75;;;;;;;;;;12644921;28;20031;-84
2022/06/29 13:08:41;;;;;;;2.28;1.63;;;;;;;;;;12645458;28;20494;-84
2022/06/29 13:14:43;;;;;;;2.22;2.03;;;;;;;;;;12626305;28;20036;-85
2022/06/29 13:20:45;;;;;;;3.25;2.22;;;;;;;;;;12626970;28;20047;-83
2022/06/29 13:26:47;;;;;;;2.75;2.55;;;;;;;;;;12653683;28;20479;-84
2022/06/29 13:32:49;;;;;;;3.05;2.75;;;;;;;;;;12635384;28;20073;-84
2022/06/29 13:38:51;;;;;;;4.43;3.40;;;;;;;;;;12635710;28;20066;-83
2022/06/29 13:44:53;;;;;;;3.85;3.15;;;;;;;;;;12653103;28;20044;-83
2022/06/29 13:50:55;;;;;;;4.25;3.35;;;;;;;;;;12653418;28;20665;-84
2022/06/29 13:56:57;;;;;;;5.25;2.50;;;;;;;;;;12652652;28;20040;-84
2022/06/29 14:02:59;;;;;;;6.88;4.38;;;;;;;;;;12633793;28;20032;-84
2022/06/29 14:09:00;;;;;;;6.70;4.47;;;;;;;;;;12652586;28;20407;-83
2022/06/29 14:15:02;;;;;;;4.38;2.67;;;;;;;;;;12616421;28;20396;-82
2022/06/29 14:21:04;;;;;;;3.70;3.22;;;;;;;;;;12632793;28;20039;-82
2022/06/29 14:27:06;;;;;;;6.05;3.45;;;;;;;;;;12632430;28;20032;-83
2022/06/29 14:33:07;;;;;;;6.18;3.85;;;;;;;;;;12632780;28;20387;-83
2022/06/29 14:39:09;;;;;;;5.63;3.28;;;;;;;;;;12651236;28;20047;-84
2022/06/29 14:45:11;;;;;;;6.00;3.28;;;;;;;;;;12650880;28;20361;-82
2022/06/29 14:51:14;;;;;;;4.22;3.10;;;;;;;;;;12648872;28;20040;-81
2022/06/29 14:57:16;;;;;;;4.35;2.70;;;;;;;;;;12650473;28;20036;-81
2022/06/29 15:03:19;;;;;;;5.47;3.97;;;;;;;;;;12648604;28;20039;-84
2022/06/29 15:09:21;;;;;;;4.32;2.40;;;;;;;;;;12648623;28;20043;-83
2022/06/29 15:15:22;;;;;;;4.25;2.60;;;;;;;;;;12629523;28;20040;-82
2022/06/29 15:21:25;;;;;;;4.20;2.70;;;;;;;;;;12647366;28;20027;-82
2022/06/29 15:27:27;;;;;;;4.03;2.72;;;;;;;;;;12629084;28;20044;-83
2022/06/29 15:39:56;;;;;;;6.05;3.28;;;;;;;;;;12615790;28;20052;-82
2022/06/29 15:45:58;;;;;;;3.30;2.38;;;;;;;;;;12627732;28;20477;-81
2022/06/29 15:52:00;;;;;;;3.15;2.25;;;;;;;;;;12627931;28;20035;-82
2022/06/29 15:58:02;;;;;;;3.75;2.10;;;;;;;;;;12646399;28;20495;-88
2022/06/29 16:04:03;;;;;;;3.50;2.08;;;;;;;;;;12627957;28;20039;-87
2022/06/29 16:10:06;;;;;;;3.70;2.10;;;;;;;;;;12628635;28;20044;-85
2022/06/29 16:16:07;;;;;;;3.72;1.98;;;;;;;;;;12611501;28;20040;-81
2022/06/29 16:22:10;;;;;;;2.67;1.65;;;;;;;;;;12627448;28;20032;-84
2022/06/29 16:28:12;;;;;;;5.10;1.90;;;;;;;;;;12626970;28;20225;-84
2022/06/29 16:34:14;;;;;;;3.85;1.95;;;;;;;;;;12610606;28;20486;-85
2022/06/29 16:40:16;;;;;;;4.03;1.65;;;;;;;;;;12627169;28;20153;-80
2022/06/29 16:46:18;;;;;;;3.53;1.73;;;;;;;;;;12644680;28;20040;-81
2022/06/29 16:52:19;;;;;;;4.07;1.92;;;;;;;;;;12644449;28;20043;-85
2022/06/29 16:58:21;;;;;;;2.90;1.85;;;;;;;;;;12608414;28;20036;-80
2022/06/29 17:04:23;;;;;;;4.03;1.55;;;;;;;;;;12625216;28;20039;-80
2022/06/29 17:10:24;;;;;;;3.10;1.70;;;;;;;;;;12644016;28;20044;-85
2022/06/29 17:16:27;;;;;;;6.75;2.10;;;;;;;;;;12625159;28;20028;-80
2022/06/29 17:22:29;;;;;;;3.65;1.70;;;;;;;;;;12643424;28;20032;-80
2022/06/29 17:28:30;;;;;;;4.80;1.80;;;;;;;;;;12643246;28;20046;-84
2022/06/29 17:34:32;;;;;;;4.88;1.70;;;;;;;;;;12625130;28;20626;-86
2022/06/29 17:40:34;;;;;;;4.90;1.77;;;;;;;;;;12648514;28;20055;-84
2022/06/29 17:46:35;;;;;;;5.10;1.98;;;;;;;;;;12645915;28;20048;-81
2022/06/29 17:52:37;;;;;;;4.47;1.80;;;;;;;;;;12626238;28;20020;-84
2022/06/29 17:58:39;;;;;;;3.33;2.13;;;;;;;;;;12644949;28;20396;-80
2022/06/29 18:04:41;;;;;;;3.60;1.63;;;;;;;;;;12642346;28;20476;-85
2022/06/29 18:10:43;;;;;;;4.90;1.70;;;;;;;;;;12648703;28;20040;-80
2022/06/29 18:16:45;;;;;;;2.38;1.48;;;;;;;;;;12651511;28;20403;-80
2022/06/29 18:22:46;;;;;;;4.47;1.95;;;;;;;;;;12651264;28;20032;-84
2022/06/29 18:28:48;;;;;;;3.60;1.88;;;;;;;;;;12650575;28;20040;-81
2022/06/29 18:34:50;;;;;;;2.80;1.88;;;;;;;;;;12632589;28;20020;-81
2022/06/29 18:40:51;;;;;;;4.13;2.22;;;;;;;;;;12650984;28;20404;-81
2022/06/29 18:46:53;;;;;;;4.60;2.45;;;;;;;;;;12649904;28;20043;-81
2022/06/29 18:52:55;;;;;;;4.70;2.58;;;;;;;;;;12649636;28;20042;-80
2022/06/29 18:58:56;;;;;;;3.22;1.83;;;;;;;;;;12614650;28;20032;-81
2022/06/29 19:04:58;;;;;;;3.78;1.90;;;;;;;;;;12614860;28;20035;-81
2022/06/29 19:11:50;;;;;;;3.17;1.92;;;;;;;;;;12630732;28;20525;-81
2022/06/29 19:17:22;;;;;;;4.60;2.40;;;;;;;;;;12630136;28;20047;-81
2022/06/29 19:23:23;;;;;;;3.85;1.80;;;;;;;;;;12612904;28;20043;-81
2022/06/29 19:29:25;;;;;;;2.92;1.92;;;;;;;;;;12629880;28;20044;-80
2022/06/29 19:35:28;;;;;;;2.45;1.90;;;;;;;;;;12613072;28;20040;-80
2022/06/29 19:41:30;;;;;;;3.33;1.75;;;;;;;;;;12630168;28;20059;-80
2022/06/29 19:47:32;;;;;;;2.15;1.85;;;;;;;;;;12647359;28;20051;-80
2022/06/29 19:53:35;;;;;;;3.78;2.13;;;;;;;;;;12647316;28;20202;-80
2022/06/29 19:59:36;;;;;;;5.82;2.47;;;;;;;;;;12646816;28;20040;-81
2022/06/29 20:05:38;;;;;;;4.78;2.58;;;;;;;;;;12646589;28;20507;-81
2022/06/29 20:11:40;;;;;;;3.53;2.17;;;;;;;;;;12627772;28;20040;-81
2022/06/29 20:17:42;;;;;;;6.07;2.60;;;;;;;;;;12645766;28;20039;-81
2022/06/29 20:23:44;;;;;;;6.13;2.53;;;;;;;;;;12630030;28;20282;-86
2022/06/29 20:29:45;;;;;;;4.53;2.63;;;;;;;;;;12645288;28;20048;-86
2022/06/29 20:35:47;;;;;;;4.28;2.28;;;;;;;;;;12627232;28;20036;-86
2022/06/29 20:41:49;;;;;;;6.38;2.78;;;;;;;;;;12627703;28;20052;-83
2022/06/29 20:47:55;;;;;;;3.40;2.67;;;;;;;;;;12644343;28;20042;-86
2022/06/29 20:53:56;;;;;;;3.92;2.85;;;;;;;;;;12629483;28;20047;-86
2022/06/29 20:59:58;;;;;;;3.45;2.38;;;;;;;;;;12626356;28;20387;-79
2022/06/29 21:06:00;;;;;;;3.78;2.35;;;;;;;;;;12644200;28;20043;-85
2022/06/29 21:12:01;;;;;;;3.00;2.70;;;;;;;;;;12644107;28;20066;-80
2022/06/29 21:18:03;;;;;;;4.32;2.80;;;;;;;;;;12625726;28;20028;-80
2022/06/29 21:24:05;;;;;;;3.60;3.00;;;;;;;;;;12643979;28;20420;-80
2022/06/29 21:30:08;;;;;;;3.45;2.60;;;;;;;;;;12644052;28;20040;-80
2022/06/29 21:36:12;;;;;;;5.03;3.05;;;;;;;;;;12625856;28;20043;-86
2022/06/29 21:42:13;;;;;;;6.93;3.97;;;;;;;;;;12627309;28;20067;-80
2022/06/29 21:54:35;;;;;;;4.18;3.30;;;;;;;;;;12653032;28;20044;-80
2022/06/29 22:00:37;;;;;;;5.18;3.28;;;;;;;;;;12652629;28;20028;-80
2022/06/29 22:06:40;;;;;;;3.47;3.13;;;;;;;;;;12652434;28;20051;-86
2022/06/29 22:12:42;;;;;;;3.60;3.30;;;;;;;;;;12639309;28;20043;-81
2022/06/29 22:18:44;;;;;;;4.03;3.45;;;;;;;;;;12633964;28;20384;-80
2022/06/29 22:24:46;;;;;;;4.97;3.40;;;;;;;;;;12651917;28;20048;-81
2022/06/29 22:30:47;;;;;;;4.45;3.60;;;;;;;;;;12617418;28;20040;-80
2022/06/29 22:36:49;;;;;;;3.60;3.17;;;;;;;;;;12633212;28;20047;-81
2022/06/29 22:42:51;;;;;;;5.35;3.90;;;;;;;;;;12616413;28;20043;-81
2022/06/29 22:48:53;;;;;;;4.85;4.32;;;;;;;;;;12632400;28;20059;-81
2022/06/29 22:54:55;;;;;;;6.60;4.63;;;;;;;;;;12631015;28;20049;-81
2022/06/29 23:00:56;;;;;;;7.38;5.25;;;;;;;;;;12649712;28;20044;-81
2022/06/29 23:06:58;;;;;;;5.85;4.40;;;;;;;;;;12650085;28;20036;-87
2022/06/29 23:13:00;;;;;;;4.45;4.03;;;;;;;;;;12631022;28;20036;-81
2022/06/29 23:19:01;;;;;;;6.22;4.30;;;;;;;;;;12648157;28;20031;-80
2022/06/29 23:25:03;;;;;;;4.50;3.95;;;;;;;;;;12647757;28;20028;-81
2022/06/29 23:31:05;;;;;;;4.60;4.13;;;;;;;;;;12648557;28;20412;-81
2022/06/29 23:37:07;;;;;;;5.65;4.60;;;;;;;;;;12629477;28;20055;-81
2022/06/29 23:43:08;;;;;;;5.22;4.72;;;;;;;;;;12612622;28;20400;-81
2022/06/29 23:49:10;;;;;;;5.75;4.57;;;;;;;;;;12629077;28;20047;-81
2022/06/29 23:55:13;;;;;;;5.88;4.38;;;;;;;;;;12612896;28;20032;-81
